Time;durP1;ratioP1;P1;durP2;ratioP2;P2;SDS_P1;SDS_P2;PMS_P1;PMS_P2;Temp;Humidity;BMP_temperature;BMP_pressure;BME280_temperature;BME280_humidity;BME280_pressure;Samples;Min_cycle;Max_cycle;Signal;HPM_P1;HPM_P2
2022/08/28 00:00:45;;;;;;;9.33;3.20;;;;;;;15.19;76.39;101783.53;5068647;28;20068;-87
2022/08/28 00:03:12;;;;;;;9.57;3.40;;;;;;;15.14;76.40;101779.72;5070959;28;20098;-87
2022/08/28 00:05:38;;;;;;;7.88;3.20;;;;;;;15.10;76.88;101773.22;5035686;28;20033;-88
2022/08/28 00:08:04;;;;;;;8.63;3.20;;;;;;;15.18;76.48;101788.09;5031243;28;20067;-87
2022/08/28 00:10:29;;;;;;;9.77;3.00;;;;;;;15.17;76.91;101791.88;5030839;28;20033;-87
2022/08/28 00:12:56;;;;;;;10.47;3.53;;;;;;;15.06;76.97;101780.25;5031003;28;20033;-88
2022/08/28 00:15:29;;;;;;;12.00;3.55;;;;;;;15.08;76.95;101788.06;5031141;28;20424;-87
2022/08/28 00:17:55;;;;;;;15.63;3.75;;;;;;;15.07;76.92;101789.16;5030861;28;20435;-88
2022/08/28 00:20:22;;;;;;;9.77;3.35;;;;;;;15.07;77.46;101799.94;5030487;28;20075;-87
2022/08/28 00:22:48;;;;;;;10.40;3.17;;;;;;;14.96;77.46;101788.28;5045970;28;20107;-88
2022/08/28 00:25:15;;;;;;;14.47;3.77;;;;;;;14.91;78.63;101799.06;5051197;28;20280;-88
2022/08/28 00:27:52;;;;;;;13.15;3.60;;;;;;;14.89;78.75;101799.34;5050807;28;20539;-88
2022/08/28 00:30:25;;;;;;;11.35;3.65;;;;;;;14.81;78.66;101789.03;5066464;28;20028;-88
2022/08/28 00:32:53;;;;;;;12.57;3.13;;;;;;;14.76;78.45;101786.34;5070063;28;20434;-88
2022/08/28 00:35:18;;;;;;;9.13;3.67;;;;;;;14.56;79.86;101776.19;5070824;28;20056;-87
2022/08/28 00:37:45;;;;;;;10.52;3.75;;;;;;;14.53;80.14;101793.72;5069137;28;20063;-87
2022/08/28 00:40:12;;;;;;;12.23;3.40;;;;;;;14.50;79.92;101789.69;5064095;28;21178;-87
2022/08/28 00:42:37;;;;;;;10.77;3.40;;;;;;;14.41;80.57;101790.44;5070668;28;20290;-88
2022/08/28 00:45:04;;;;;;;11.13;3.58;;;;;;;14.35;80.81;101792.25;5069395;28;20025;-88
2022/08/28 00:47:29;;;;;;;14.43;3.40;;;;;;;14.33;81.53;101795.22;5070631;28;20024;-87
2022/08/28 00:49:55;;;;;;;7.73;3.30;;;;;;;14.24;81.70;101784.09;5069439;28;20636;-87
2022/08/28 00:52:25;;;;;;;10.00;3.60;;;;;;;14.20;82.03;101785.69;5070535;28;20027;-87
2022/08/28 00:54:55;;;;;;;14.40;4.35;;;;;;;14.19;82.12;101792.16;5068941;28;20499;-88
2022/08/28 00:57:27;;;;;;;12.98;4.03;;;;;;;14.11;82.20;101781.88;5069890;28;20486;-88
2022/08/28 00:59:52;;;;;;;11.95;3.40;;;;;;;14.08;82.85;101785.88;5053438;28;20021;-88
2022/08/28 01:02:18;;;;;;;10.57;3.40;;;;;;;14.13;82.82;101795.06;5064531;28;20054;-87
2022/08/28 01:04:44;;;;;;;14.37;3.87;;;;;;;14.02;83.10;101800.41;5070516;28;20472;-87
2022/08/28 01:07:13;;;;;;;12.17;3.80;;;;;;;14.07;82.99;101807.69;5069731;28;20323;-87
2022/08/28 01:09:43;;;;;;;14.65;3.65;;;;;;;13.96;83.12;101806.81;5070193;28;20046;-88
2022/08/28 01:12:18;;;;;;;13.07;3.45;;;;;;;13.96;83.50;101812.19;5063920;28;20487;-87
2022/08/28 01:14:45;;;;;;;12.80;3.53;;;;;;;13.98;83.65;101815.44;5058274;28;20028;-87
2022/08/28 01:17:13;;;;;;;10.48;3.85;;;;;;;13.92;84.16;101816.47;5070300;28;20020;-87
2022/08/28 01:19:44;;;;;;;11.18;3.60;;;;;;;13.89;84.36;101822.34;5068739;28;20024;-87
2022/08/28 01:22:47;;;;;;;16.58;4.22;;;;;;;13.90;83.60;101821.28;5069976;28;20075;-87
2022/08/28 01:25:17;;;;;;;11.27;3.63;;;;;;;13.86;84.85;101812.13;5070148;28;20016;-87
2022/08/28 01:27:42;;;;;;;9.50;3.92;;;;;;;13.75;84.97;101803.91;5068375;28;20066;-87
2022/08/28 01:30:12;;;;;;;14.70;3.97;;;;;;;13.74;85.05;101810.38;5055798;28;20500;-88
2022/08/28 01:32:44;;;;;;;11.07;4.07;;;;;;;13.66;85.34;101816.25;5049790;28;20373;-88
2022/08/28 01:35:14;;;;;;;9.27;3.70;;;;;;;13.69;85.62;101813.03;5049769;28;20075;-87
2022/08/28 01:37:39;;;;;;;13.07;4.18;;;;;;;13.63;86.01;101822.94;5049212;28;20033;-87
2022/08/28 01:40:08;;;;;;;11.47;3.80;;;;;;;13.65;85.89;101819.16;5049597;28;20029;-88
2022/08/28 01:42:41;;;;;;;15.07;3.88;;;;;;;13.59;86.52;101824.53;5049827;28;20033;-87
2022/08/28 01:45:11;;;;;;;11.75;3.80;;;;;;;13.56;86.79;101818.81;5048954;28;20033;-87
2022/08/28 01:47:38;;;;;;;13.82;3.97;;;;;;;13.56;87.19;101824.19;5048713;28;20688;-87
2022/08/28 01:50:06;;;;;;;12.32;3.95;;;;;;;13.57;86.49;101828.50;5049139;28;20087;-87
2022/08/28 01:52:32;;;;;;;12.82;4.22;;;;;;;13.53;86.79;101820.13;5049575;28;20116;-87
2022/08/28 01:54:57;;;;;;;11.57;3.87;;;;;;;13.55;86.84;101828.78;5049456;28;20108;-87
2022/08/28 01:57:23;;;;;;;9.10;3.57;;;;;;;13.50;87.03;101819.84;5049850;28;20370;-87
2022/08/28 01:59:49;;;;;;;11.55;3.88;;;;;;;13.48;87.20;101820.06;5051319;28;20699;-87
2022/08/28 02:02:15;;;;;;;12.67;3.70;;;;;;;13.48;87.58;101822.78;5033617;28;20036;-87
2022/08/28 02:04:41;;;;;;;9.90;3.60;;;;;;;13.42;87.82;101818.41;5053289;28;20295;-87
2022/08/28 02:07:06;;;;;;;15.48;3.70;;;;;;;13.42;88.05;101829.97;5053400;28;20075;-87
2022/08/28 02:09:31;;;;;;;12.63;3.80;;;;;;;13.32;88.11;101824.47;5053615;28;20029;-87
2022/08/28 02:11:56;;;;;;;12.03;3.83;;;;;;;13.35;88.24;101829.31;5052451;28;20060;-88
2022/08/28 02:14:22;;;;;;;10.03;3.50;;;;;;;13.38;88.20;101830.72;5053514;28;20040;-87
2022/08/28 02:16:47;;;;;;;11.93;3.60;;;;;;;13.35;87.62;101834.72;5052275;28;20020;-87
2022/08/28 02:19:13;;;;;;;12.07;3.25;;;;;;;13.28;88.43;101831.41;5051410;28;20032;-87
2022/08/28 02:21:39;;;;;;;14.43;3.60;;;;;;;13.25;88.52;101829.22;5052855;28;20480;-87
2022/08/28 02:24:04;;;;;;;13.23;3.92;;;;;;;13.24;88.98;101841.84;5052917;28;20017;-87
2022/08/28 02:26:30;;;;;;;14.93;3.77;;;;;;;13.16;89.14;101837.72;5055356;28;20641;-87
2022/08/28 02:28:57;;;;;;;12.32;3.80;;;;;;;13.15;89.26;101841.47;5072623;28;20082;-87
2022/08/28 02:31:22;;;;;;;12.55;3.92;;;;;;;13.09;90.02;101839.81;5070993;28;20395;-87
2022/08/28 02:33:48;;;;;;;17.90;3.60;;;;;;;13.07;89.92;101841.09;5072363;28;20024;-88
2022/08/28 02:36:15;;;;;;;15.57;3.83;;;;;;;12.96;90.82;101829.41;5073098;28;20025;-87
2022/08/28 02:38:40;;;;;;;15.00;3.92;;;;;;;12.96;90.75;101834.78;5065229;28;20048;-87
2022/08/28 02:41:06;;;;;;;15.80;3.90;;;;;;;12.99;90.88;101840.47;5071919;28;20028;-87
2022/08/28 02:43:32;;;;;;;14.98;3.88;;;;;;;13.01;90.13;101841.06;5072862;28;20040;-87
2022/08/28 02:45:57;;;;;;;9.63;3.23;;;;;;;13.09;90.10;101842.50;5072142;28;20029;-87
2022/08/28 02:48:28;;;;;;;17.00;4.10;;;;;;;13.00;91.18;101841.28;5054860;28;20016;-87
2022/08/28 02:50:57;;;;;;;10.23;3.80;;;;;;;12.93;91.31;101829.91;5072067;28;20032;-87
2022/08/28 02:53:22;;;;;;;10.82;3.90;;;;;;;12.95;91.49;101838.53;5072688;28;20063;-87
2022/08/28 02:55:49;;;;;;;10.90;3.70;;;;;;;12.94;91.76;101845.78;5054436;28;20693;-87
2022/08/28 02:58:14;;;;;;;15.55;3.90;;;;;;;12.84;91.38;101835.72;5052498;28;20013;-87
2022/08/28 03:00:40;;;;;;;8.03;3.20;;;;;;;12.83;91.16;101828.69;5053080;28;20116;-87
2022/08/28 03:03:06;;;;;;;13.50;3.75;;;;;;;12.83;91.84;101838.66;5052960;28;20465;-87
2022/08/28 03:05:31;;;;;;;9.57;3.43;;;;;;;12.77;92.06;101829.72;5053825;28;20036;-88
2022/08/28 03:07:56;;;;;;;13.90;3.73;;;;;;;12.77;92.62;101845.00;5063725;28;20286;-87
2022/08/28 03:10:22;;;;;;;15.83;4.07;;;;;;;12.73;92.53;101837.44;5071415;28;20025;-88
2022/08/28 03:12:48;;;;;;;12.50;4.10;;;;;;;12.69;92.23;101841.69;5034624;28;20033;-87
2022/08/28 03:15:13;;;;;;;10.25;3.67;;;;;;;12.68;92.54;101842.75;5033432;28;20088;-88
2022/08/28 03:17:39;;;;;;;13.00;3.60;;;;;;;12.67;92.57;101843.00;5015545;28;20389;-87
2022/08/28 03:20:06;;;;;;;11.73;3.40;;;;;;;12.57;92.28;101831.03;5032130;28;20477;-87
2022/08/28 03:25:16;;;;;;;9.97;3.30;;;;;;;12.60;92.72;101851.22;5053428;28;20098;-87
2022/08/28 03:27:41;;;;;;;10.47;3.60;;;;;;;12.56;92.75;101847.41;5052981;28;20271;-88
2022/08/28 03:30:07;;;;;;;8.87;3.43;;;;;;;12.54;93.38;101847.66;5051242;28;20405;-88
2022/08/28 03:32:33;;;;;;;13.40;3.78;;;;;;;12.52;93.87;101852.47;5051484;28;20028;-88
2022/08/28 03:34:58;;;;;;;17.15;3.72;;;;;;;12.60;93.04;101851.22;5051646;28;20115;-88
2022/08/28 03:37:24;;;;;;;9.57;3.30;;;;;;;12.55;93.14;101848.47;5051886;28;20025;-88
2022/08/28 03:39:49;;;;;;;10.67;3.00;;;;;;;12.57;92.99;101863.31;5064400;28;20499;-88
2022/08/28 03:42:15;;;;;;;9.23;3.50;;;;;;;12.52;93.34;101851.63;5071636;28;20029;-88
2022/08/28 03:44:40;;;;;;;11.00;3.50;;;;;;;12.52;92.78;101859.69;5072456;28;20032;-87
2022/08/28 03:47:05;;;;;;;14.83;3.50;;;;;;;12.50;93.23;101861.84;5054505;28;20120;-88
2022/08/28 03:49:31;;;;;;;9.33;3.40;;;;;;;12.45;93.45;101857.19;5059126;28;20178;-88
2022/08/28 03:51:56;;;;;;;12.57;3.30;;;;;;;12.42;93.02;101860.34;5071389;28;20027;-88
2022/08/28 03:54:23;;;;;;;10.90;3.60;;;;;;;12.41;93.72;101864.13;5071876;28;20640;-88
2022/08/28 03:56:49;;;;;;;12.00;4.00;;;;;;;12.32;93.60;101852.16;5071619;28;20104;-88
2022/08/28 03:59:14;;;;;;;12.03;3.93;;;;;;;12.30;93.73;101865.84;5072073;28;20056;-88
2022/08/28 04:01:40;;;;;;;17.57;4.70;;;;;;;12.30;93.98;101865.84;5071434;28;20074;-88
2022/08/28 04:04:05;;;;;;;12.40;4.77;;;;;;;12.21;94.86;101862.75;5054176;28;20299;-88
2022/08/28 04:06:30;;;;;;;9.50;4.20;;;;;;;12.18;94.66;101863.22;5051704;28;20039;-88
2022/08/28 04:08:56;;;;;;;10.00;4.73;;;;;;;12.17;94.80;101875.03;5051541;28;20040;-89
2022/08/28 04:11:22;;;;;;;12.75;4.68;;;;;;;12.06;94.94;101865.97;5050161;28;20033;-88
2022/08/28 04:13:47;;;;;;;13.53;4.67;;;;;;;12.09;95.11;101872.72;5033209;28;20025;-88
2022/08/28 04:16:15;;;;;;;12.37;4.13;;;;;;;12.06;95.20;101873.19;5051407;28;20385;-88
2022/08/28 04:18:42;;;;;;;14.17;4.57;;;;;;;12.08;94.93;101874.59;5051036;28;20582;-88
2022/08/28 04:21:19;;;;;;;18.00;4.83;;;;;;;12.08;95.24;101865.72;5059423;28;20290;-87
2022/08/28 04:23:46;;;;;;;13.80;4.55;;;;;;;12.05;95.31;101867.03;5070764;28;20119;-88
2022/08/28 04:26:14;;;;;;;13.77;4.55;;;;;;;12.05;95.89;101875.09;5070872;28;20025;-88
2022/08/28 04:28:40;;;;;;;9.90;4.05;;;;;;;11.96;95.69;101874.63;5070738;28;20051;-88
2022/08/28 04:31:07;;;;;;;14.05;4.32;;;;;;;11.90;96.14;101867.53;5069727;28;20060;-88
2022/08/28 04:33:33;;;;;;;16.23;4.50;;;;;;;11.94;96.56;101884.81;5052866;28;20169;-88
2022/08/28 04:36:02;;;;;;;15.35;4.35;;;;;;;11.89;96.56;101879.31;5070235;28;20031;-87
2022/08/28 04:38:28;;;;;;;12.65;4.25;;;;;;;11.93;96.41;101885.84;5049477;28;20472;-88
2022/08/28 04:40:53;;;;;;;14.80;4.43;;;;;;;11.96;96.77;101885.38;5050889;28;20021;-88
2022/08/28 04:43:20;;;;;;;12.30;4.17;;;;;;;11.90;96.33;101886.34;5070704;28;20143;-87
2022/08/28 04:45:45;;;;;;;11.20;4.20;;;;;;;11.88;97.54;101885.75;5070603;28;20017;-88
2022/08/28 04:48:12;;;;;;;13.97;4.13;;;;;;;11.87;97.36;101894.88;5070051;28;20028;-88
2022/08/28 04:50:42;;;;;;;17.80;4.50;;;;;;;11.84;98.02;101892.69;5070113;28;20063;-88
2022/08/28 04:53:09;;;;;;;15.73;3.95;;;;;;;11.79;98.32;101897.94;5070302;28;20087;-88
2022/08/28 04:55:42;;;;;;;11.27;4.30;;;;;;;11.78;97.84;101893.63;5051701;28;20025;-88
2022/08/28 04:58:08;;;;;;;7.85;3.70;;;;;;;11.74;98.24;101889.78;5050374;28;20039;-88
2022/08/28 05:00:36;;;;;;;13.27;4.03;;;;;;;11.70;98.65;101886.78;5049968;28;20100;-88
2022/08/28 05:03:01;;;;;;;10.55;4.03;;;;;;;11.63;98.61;101878.88;5050120;28;20116;-88
2022/08/28 05:05:27;;;;;;;11.13;4.10;;;;;;;11.71;99.34;101895.63;5049248;28;20108;-88
2022/08/28 05:07:52;;;;;;;10.53;4.00;;;;;;;11.71;99.29;101898.31;5032320;28;20040;-88
2022/08/28 05:10:17;;;;;;;8.07;3.77;;;;;;;11.61;99.37;101891.72;5049406;28;20484;-88
2022/08/28 05:12:43;;;;;;;21.00;4.90;;;;;;;11.60;99.98;101903.50;5050363;28;20025;-88
2022/08/28 05:15:09;;;;;;;12.93;3.80;;;;;;;11.61;99.67;101901.63;5049978;28;20033;-88
2022/08/28 05:17:34;;;;;;;13.10;4.17;;;;;;;11.69;99.48;101914.69;5049961;28;20071;-88
2022/08/28 05:19:59;;;;;;;12.40;4.20;;;;;;;11.62;99.92;101908.63;5049229;28;20032;-88
2022/08/28 05:22:27;;;;;;;14.03;4.03;;;;;;;11.68;99.59;101917.63;5050034;28;20116;-88
2022/08/28 05:24:53;;;;;;;8.27;3.70;;;;;;;11.68;99.40;101920.28;5049804;28;20363;-88
2022/08/28 05:27:18;;;;;;;15.57;4.00;;;;;;;11.67;99.41;101922.16;5050321;28;20029;-88
2022/08/28 05:29:44;;;;;;;16.88;4.65;;;;;;;11.62;99.59;101920.19;5049781;28;20028;-88
2022/08/28 05:32:09;;;;;;;8.77;3.77;;;;;;;11.65;99.31;101932.31;5060050;28;20054;-88
2022/08/28 05:34:34;;;;;;;12.27;4.37;;;;;;;11.61;99.89;101918.56;5068565;28;20025;-88
2022/08/28 05:37:00;;;;;;;12.87;4.30;;;;;;;11.68;99.90;101928.34;5069056;28;20107;-88
2022/08/28 05:39:26;;;;;;;14.32;4.80;;;;;;;11.68;99.88;101933.72;5069670;28;20119;-88
2022/08/28 05:41:51;;;;;;;16.23;5.10;;;;;;;11.60;100.00;101919.59;5069303;28;20112;-88
2022/08/28 05:44:17;;;;;;;9.90;4.43;;;;;;;11.74;99.77;101930.91;5064849;28;20523;-87
2022/08/28 05:46:45;;;;;;;12.70;4.25;;;;;;;11.74;99.96;101922.84;5068305;28;20031;-88
2022/08/28 05:49:12;;;;;;;14.20;4.28;;;;;;;11.77;99.68;101929.59;5058245;28;20396;-86
2022/08/28 05:51:40;;;;;;;14.27;4.78;;;;;;;11.84;99.81;101930.28;5066268;28;20357;-87
2022/08/28 05:54:06;;;;;;;12.40;4.40;;;;;;;11.84;99.42;101922.22;5069600;28;20029;-89
2022/08/28 05:56:37;;;;;;;14.67;4.43;;;;;;;12.04;98.90;101934.44;5069639;28;20285;-87
2022/08/28 05:59:04;;;;;;;10.40;4.47;;;;;;;12.15;98.69;101938.09;5069527;28;20024;-87
2022/08/28 06:01:32;;;;;;;15.27;4.40;;;;;;;12.29;97.85;101944.00;5063309;28;20051;-88
2022/08/28 06:03:59;;;;;;;10.65;4.75;;;;;;;12.35;98.33;101941.16;5048313;28;20025;-86
2022/08/28 06:06:27;;;;;;;17.23;3.87;;;;;;;12.47;98.60;101949.16;5049809;28;20021;-87
2022/08/28 06:09:15;;;;;;;15.17;4.80;;;;;;;12.56;97.99;101950.41;5049289;28;20303;-87
2022/08/28 06:11:43;;;;;;;16.58;4.88;;;;;;;12.63;98.19;101946.72;5055899;28;20056;-87
2022/08/28 06:14:09;;;;;;;12.98;4.28;;;;;;;12.73;97.08;101955.75;5049746;28;20025;-87
2022/08/28 06:16:40;;;;;;;11.20;4.45;;;;;;;12.77;97.17;101947.22;5070012;28;20028;-87
2022/08/28 06:19:08;;;;;;;13.50;4.65;;;;;;;12.82;97.59;101958.06;5061311;28;20033;-87
2022/08/28 06:21:33;;;;;;;11.07;4.28;;;;;;;12.87;96.57;101944.69;5055458;28;20044;-88
2022/08/28 06:23:59;;;;;;;10.50;4.50;;;;;;;12.92;96.90;101944.75;5069224;28;20021;-86
2022/08/28 06:26:24;;;;;;;8.53;4.00;;;;;;;12.96;96.56;101942.41;5069240;28;20274;-85
2022/08/28 06:28:51;;;;;;;21.27;4.50;;;;;;;12.97;96.66;101941.31;5068918;28;20425;-86
2022/08/28 06:31:17;;;;;;;12.90;4.00;;;;;;;13.10;96.44;101951.75;5048792;28;20028;-83
2022/08/28 06:33:42;;;;;;;15.43;4.10;;;;;;;13.11;96.11;101942.63;5056895;28;20051;-84
2022/08/28 06:36:07;;;;;;;9.07;3.60;;;;;;;13.17;95.94;101955.06;5048623;28;20025;-84
2022/08/28 06:38:33;;;;;;;15.40;3.70;;;;;;;13.25;95.68;101956.50;5040977;28;20033;-84
2022/08/28 06:40:58;;;;;;;15.75;4.03;;;;;;;13.37;95.67;101966.38;5043432;28;20029;-83
2022/08/28 06:43:26;;;;;;;11.83;3.80;;;;;;;13.46;95.19;101960.34;5052601;28;20143;-84
2022/08/28 06:45:54;;;;;;;11.02;3.78;;;;;;;13.56;94.43;101970.44;5052956;28;20045;-84
2022/08/28 06:48:22;;;;;;;11.95;3.47;;;;;;;13.69;94.12;101971.13;5052520;28;20411;-84
2022/08/28 06:50:51;;;;;;;10.18;3.50;;;;;;;13.72;93.85;101968.72;5052212;28;20040;-84
2022/08/28 06:53:19;;;;;;;8.93;3.63;;;;;;;13.85;92.63;101982.91;5053187;28;20040;-84
2022/08/28 06:55:54;;;;;;;14.65;3.42;;;;;;;13.95;91.95;101974.91;5051782;28;20052;-85
2022/08/28 06:58:19;;;;;;;17.70;3.70;;;;;;;14.05;91.31;101975.06;5048409;28;20527;-85
2022/08/28 07:00:44;;;;;;;14.73;3.33;;;;;;;14.08;90.71;101966.44;5054206;28;20107;-90
2022/08/28 07:03:11;;;;;;;28.77;3.80;;;;;;;14.24;90.28;101980.09;5071924;28;20357;-88
2022/08/28 07:05:36;;;;;;;111.38;6.40;;;;;;;14.34;90.12;101974.78;5054706;28;20392;-90
2022/08/28 07:08:02;;;;;;;14.43;2.83;;;;;;;14.38;89.81;101967.00;5055682;28;20028;-90
2022/08/28 07:10:28;;;;;;;17.73;3.33;;;;;;;14.47;88.78;101962.78;5071776;28;20020;-90
2022/08/28 07:12:54;;;;;;;14.37;3.10;;;;;;;14.63;89.03;101976.38;5072130;28;20035;-91
2022/08/28 07:15:20;;;;;;;12.45;3.17;;;;;;;14.75;87.03;101979.75;5072397;28;20028;-91
2022/08/28 07:17:45;;;;;;;11.30;2.70;;;;;;;14.78;87.03;101979.22;5068095;28;20419;-91
2022/08/28 07:20:11;;;;;;;10.63;2.70;;;;;;;14.81;86.41;101967.94;5069741;28;20032;-92
2022/08/28 07:22:39;;;;;;;10.83;2.87;;;;;;;14.97;86.28;101973.44;5071933;28;20067;-90
2022/08/28 07:25:06;;;;;;;11.55;3.33;;;;;;;15.13;85.64;101977.84;5071878;28;20032;-90
2022/08/28 07:27:31;;;;;;;7.63;2.75;;;;;;;15.20;84.34;101974.13;5071915;28;20035;-92
2022/08/28 07:29:57;;;;;;;8.70;2.53;;;;;;;15.32;83.36;101987.44;5071777;28;20044;-91
2022/08/28 07:32:23;;;;;;;12.13;2.65;;;;;;;15.41;82.68;101980.44;5071088;28;20101;-88
2022/08/28 07:34:49;;;;;;;9.23;2.20;;;;;;;15.43;82.52;101975.59;5069424;28;20024;-88
2022/08/28 07:37:16;;;;;;;15.85;2.70;;;;;;;15.54;81.69;101985.34;5063459;28;20028;-88
2022/08/28 07:39:42;;;;;;;8.40;2.50;;;;;;;15.62;82.01;101980.53;5071647;28;20100;-88
2022/08/28 07:42:07;;;;;;;11.80;2.67;;;;;;;15.72;81.58;101981.41;5071972;28;20111;-91
2022/08/28 07:44:48;;;;;;;7.93;2.33;;;;;;;15.80;81.27;101984.66;5072802;28;20031;-89
2022/08/28 07:47:14;;;;;;;10.18;2.20;;;;;;;15.93;79.89;101994.19;5072566;28;20081;-89
2022/08/28 07:49:40;;;;;;;9.32;2.10;;;;;;;15.97;78.91;101993.41;5071212;28;20372;-87
2022/08/28 07:52:20;;;;;;;11.20;2.30;;;;;;;15.97;78.52;101982.59;5070841;28;20118;-85
2022/08/28 07:55:08;;;;;;;11.83;2.40;;;;;;;16.19;78.18;101995.06;5052368;28;20331;-87
2022/08/28 07:57:34;;;;;;;10.40;2.17;;;;;;;16.22;76.53;101980.22;5036239;28;20021;-86
2022/08/28 08:00:13;;;;;;;9.10;1.92;;;;;;;16.40;76.86;101984.28;5032523;28;20074;-85
2022/08/28 08:02:39;;;;;;;11.55;1.90;;;;;;;16.65;75.73;101994.31;5050145;28;20036;-85
2022/08/28 08:05:04;;;;;;;10.47;2.00;;;;;;;16.83;73.65;102005.66;5031336;28;20477;-86
2022/08/28 08:07:31;;;;;;;8.30;2.17;;;;;;;16.89;73.13;102001.88;5031290;28;20048;-89
2022/08/28 08:09:57;;;;;;;10.40;2.17;;;;;;;17.10;72.12;102005.41;5017895;28;20028;-90
2022/08/28 08:12:22;;;;;;;10.23;1.87;;;;;;;17.34;70.83;102011.06;5053702;28;20013;-88
2022/08/28 08:14:48;;;;;;;7.73;1.83;;;;;;;17.50;70.15;102011.81;5050965;28;20404;-88
2022/08/28 08:17:13;;;;;;;9.32;1.58;;;;;;;17.52;69.07;102009.63;5050783;28;20653;-88
2022/08/28 08:19:39;;;;;;;6.97;1.93;;;;;;;17.47;68.81;102020.47;5051198;28;20106;-87
2022/08/28 08:22:05;;;;;;;8.00;1.80;;;;;;;17.36;68.94;102019.69;5050521;28;20035;-88
2022/08/28 08:24:30;;;;;;;8.60;1.75;;;;;;;17.28;68.89;102020.28;5033021;28;20021;-86
2022/08/28 08:26:59;;;;;;;7.83;1.70;;;;;;;17.34;69.36;102027.31;5049977;28;20029;-89
2022/08/28 08:29:25;;;;;;;7.18;2.15;;;;;;;17.46;68.51;102010.72;5068362;28;20035;-87
2022/08/28 08:31:56;;;;;;;7.30;1.40;;;;;;;17.88;67.00;102013.28;5061353;28;20021;-88
2022/08/28 08:34:22;;;;;;;7.25;1.80;;;;;;;18.40;64.79;102021.97;5027364;28;20025;-88
2022/08/28 08:36:47;;;;;;;6.80;1.87;;;;;;;18.74;62.95;102010.31;5045296;28;20428;-87
2022/08/28 08:39:12;;;;;;;10.60;1.53;;;;;;;19.11;61.52;102006.22;5050673;28;20385;-87
2022/08/28 08:41:46;;;;;;;8.53;1.70;;;;;;;19.51;60.61;102022.34;5048800;28;20039;-86
2022/08/28 08:44:23;;;;;;;6.63;1.83;;;;;;;19.82;61.48;102019.25;5048483;28;20472;-86
2022/08/28 08:46:54;;;;;;;13.50;2.15;;;;;;;19.95;59.24;102012.31;5049914;28;20032;-90
2022/08/28 08:49:24;;;;;;;8.10;1.83;;;;;;;20.05;58.47;102017.63;5050844;28;20033;-88
2022/08/28 08:52:18;;;;;;;9.43;2.05;;;;;;;20.12;59.43;102028.13;5049570;28;20075;-85
2022/08/28 08:55:00;;;;;;;10.25;1.83;;;;;;;20.12;58.10;102015.31;5055552;28;20025;-85
2022/08/28 08:57:27;;;;;;;5.50;1.80;;;;;;;20.09;56.94;102001.50;5070124;28;20040;-86
2022/08/28 09:03:37;;;;;;;7.83;1.57;;;;;;;20.27;55.58;101989.81;5057810;28;20036;-90
2022/08/28 09:06:05;;;;;;;7.47;1.37;;;;;;;20.48;55.32;102015.91;5064844;28;20624;-89
2022/08/28 09:08:41;;;;;;;6.85;1.65;;;;;;;20.47;55.31;102017.00;5048699;28;20025;-90
2022/08/28 09:11:40;;;;;;;7.63;1.63;;;;;;;20.47;55.82;102014.28;5049448;28;20041;-90
2022/08/28 09:14:31;;;;;;;6.25;1.70;;;;;;;20.47;54.56;102014.28;5051973;28;20063;-90
2022/08/28 09:16:58;;;;;;;10.00;1.80;;;;;;;20.48;54.38;102008.56;5017705;28;20532;-91
2022/08/28 09:19:23;;;;;;;7.85;1.70;;;;;;;20.43;54.81;102009.44;5068031;28;20021;-91
2022/08/28 09:21:50;;;;;;;5.07;1.63;;;;;;;20.60;55.52;102024.44;5066019;28;20041;-91
2022/08/28 09:24:27;;;;;;;5.18;1.55;;;;;;;20.34;54.79;102021.31;5059018;28;20051;-91
2022/08/28 09:26:59;;;;;;;11.43;1.65;;;;;;;20.06;55.66;102021.13;5055916;28;20028;-89
2022/08/28 09:29:28;;;;;;;4.75;1.48;;;;;;;19.78;55.58;102010.88;5056646;28;20468;-90
2022/08/28 09:31:54;;;;;;;6.50;1.60;;;;;;;19.59;56.50;102020.88;5062274;28;20051;-90
2022/08/28 09:34:33;;;;;;;9.18;2.08;;;;;;;19.27;57.63;102019.63;5066274;28;20024;-90
2022/08/28 09:36:59;;;;;;;7.10;2.00;;;;;;;19.28;57.24;102024.75;5069674;28;20028;-90
2022/08/28 09:39:30;;;;;;;4.40;1.50;;;;;;;19.44;57.90;102017.25;5051795;28;20037;-92
2022/08/28 09:45:17;;;;;;;6.10;1.45;;;;;;;19.66;57.43;102018.63;5071050;28;20043;-92
2022/08/28 09:47:59;;;;;;;4.72;1.60;;;;;;;19.99;56.57;102015.28;5034976;28;20112;-91
2022/08/28 09:51:19;;;;;;;5.45;1.40;;;;;;;20.20;54.30;102007.63;5030804;28;20017;-91
2022/08/28 09:53:50;;;;;;;4.70;1.80;;;;;;;20.48;53.78;102011.28;5013753;28;20125;-92
2022/08/28 09:56:34;;;;;;;6.15;1.40;;;;;;;20.68;52.63;102014.78;5013271;28;20022;-91
2022/08/28 09:59:05;;;;;;;6.35;1.42;;;;;;;20.91;51.84;102013.03;5030950;28;20029;-92
2022/08/28 10:01:47;;;;;;;6.67;1.37;;;;;;;21.28;51.77;102019.44;5029682;28;20025;-92
2022/08/28 10:04:14;;;;;;;5.67;1.97;;;;;;;21.71;50.71;102021.06;5021309;28;20299;-91
2022/08/28 10:06:42;;;;;;;3.72;1.50;;;;;;;21.97;49.06;102027.91;5050568;28;20427;-91
2022/08/28 10:09:42;;;;;;;4.78;1.65;;;;;;;22.26;49.56;102026.72;5050155;28;20029;-92
2022/08/28 10:12:22;;;;;;;6.15;1.70;;;;;;;22.40;47.68;102019.28;5050310;28;20128;-91
2022/08/28 10:15:02;;;;;;;7.30;1.60;;;;;;;22.30;48.23;102027.69;5049864;28;20029;-91
2022/08/28 10:17:57;;;;;;;10.35;1.45;;;;;;;21.72;48.92;102027.34;5050183;28;20017;-91
2022/08/28 10:20:45;;;;;;;5.95;1.60;;;;;;;21.29;49.80;102023.78;5053511;28;20036;-91
2022/08/28 10:23:29;;;;;;;4.72;1.60;;;;;;;21.09;50.05;102018.72;5053281;28;20037;-92
2022/08/28 10:26:22;;;;;;;5.88;1.52;;;;;;;21.05;50.45;102020.41;5053265;28;20078;-91
2022/08/28 10:29:02;;;;;;;4.53;1.67;;;;;;;21.32;48.92;102014.19;5034158;28;20400;-91
2022/08/28 10:31:46;;;;;;;5.37;1.77;;;;;;;21.75;49.93;102024.00;5033093;28;20838;-91
2022/08/28 10:34:39;;;;;;;5.57;1.30;;;;;;;22.25;48.39;102020.44;5033790;28;20033;-92
2022/08/28 10:37:04;;;;;;;6.88;1.50;;;;;;;22.77;46.28;102013.75;5033332;28;20028;-92
2022/08/28 10:39:44;;;;;;;6.93;1.40;;;;;;;22.95;45.38;102009.19;5033797;28;20034;-90
2022/08/28 10:42:09;;;;;;;6.57;1.50;;;;;;;22.59;45.18;102005.44;5044675;28;20043;-91
2022/08/28 10:44:46;;;;;;;5.43;1.60;;;;;;;22.45;46.40;102008.28;5054076;28;20025;-91
2022/08/28 10:47:13;;;;;;;5.80;1.87;;;;;;;22.54;46.10;101998.19;5036589;28;20095;-92
2022/08/28 10:49:46;;;;;;;8.00;1.70;;;;;;;22.74;45.99;102004.25;5055836;28;20024;-91
2022/08/28 10:52:18;;;;;;;5.15;1.70;;;;;;;22.56;45.69;101997.09;5053323;28;20079;-91
2022/08/28 10:54:55;;;;;;;6.57;1.73;;;;;;;22.39;46.65;102014.94;5053674;28;20027;-92
2022/08/28 10:57:36;;;;;;;4.10;1.58;;;;;;;22.02;46.83;102019.59;5052942;28;20028;-90
2022/08/28 11:00:17;;;;;;;3.55;1.40;;;;;;;21.84;47.19;102027.63;5072660;28;20105;-91
2022/08/28 11:02:48;;;;;;;8.18;1.77;;;;;;;22.04;45.82;102009.19;5073548;28;20391;-90
2022/08/28 11:05:18;;;;;;;6.10;1.60;;;;;;;22.71;46.16;102002.16;5055343;28;20021;-91
2022/08/28 11:07:50;;;;;;;4.72;1.75;;;;;;;23.21;45.28;102016.72;5055020;28;20024;-91
2022/08/28 11:10:23;;;;;;;6.97;1.40;;;;;;;23.51;42.88;102017.00;5073424;28;20498;-90
2022/08/28 11:12:51;;;;;;;4.33;1.77;;;;;;;23.28;42.38;102019.81;5072999;28;20278;-91
2022/08/28 11:15:31;;;;;;;4.90;1.30;;;;;;;23.24;43.51;102005.16;5069692;28;20067;-89
2022/08/28 11:18:14;;;;;;;4.63;1.60;;;;;;;23.07;43.72;102014.09;5073070;28;20086;-89
2022/08/28 11:21:09;;;;;;;3.95;1.40;;;;;;;22.94;44.79;102018.50;5054411;28;20033;-91
2022/08/28 11:23:47;;;;;;;5.03;1.38;;;;;;;22.92;44.80;102015.28;5067323;28;20045;-90
2022/08/28 11:26:22;;;;;;;7.40;1.42;;;;;;;23.28;43.58;102011.63;5072766;28;20487;-91
2022/08/28 11:28:47;;;;;;;5.18;1.45;;;;;;;23.28;42.24;102009.69;5072805;28;20028;-91
2022/08/28 11:31:15;;;;;;;4.83;1.50;;;;;;;23.36;43.10;102018.22;5070689;28;20463;-90
2022/08/28 11:33:51;;;;;;;7.32;1.35;;;;;;;23.39;43.03;102012.94;5071104;28;20113;-89
2022/08/28 11:36:19;;;;;;;3.58;1.50;;;;;;;23.84;42.42;102022.84;5076437;28;20028;-90
2022/08/28 11:38:45;;;;;;;3.28;1.40;;;;;;;23.97;41.13;102021.13;5084291;28;20094;-89